createdAt,value
2018-08-08T00:00:46.989Z,16.07
2018-08-08T00:03:16.820Z,16.03
2018-08-08T00:05:47.090Z,16.00
2018-08-08T00:08:16.778Z,15.96
2018-08-08T00:10:46.454Z,15.96
2018-08-08T00:13:16.030Z,15.91
2018-08-08T00:15:45.425Z,15.89
2018-08-08T00:18:15.017Z,15.86
2018-08-08T00:20:45.484Z,15.92
2018-08-08T00:23:15.871Z,15.98
2018-08-08T00:25:45.305Z,15.94
2018-08-08T00:28:15.084Z,15.86
2018-08-08T00:30:44.541Z,15.84
2018-08-08T00:33:14.064Z,15.79
2018-08-08T00:35:43.558Z,15.85
2018-08-08T00:38:13.198Z,15.83
2018-08-08T00:40:42.688Z,15.78
2018-08-08T00:43:12.357Z,15.76
2018-08-08T00:45:41.864Z,15.77
2018-08-08T00:48:11.635Z,15.67
2018-08-08T00:50:42.127Z,15.67
2018-08-08T00:53:11.817Z,15.69
2018-08-08T00:55:41.482Z,15.69
2018-08-08T00:58:11.126Z,15.64
2018-08-08T01:00:40.841Z,15.59
2018-08-08T01:03:10.462Z,15.61
2018-08-08T01:05:40.103Z,15.63
2018-08-08T01:08:09.980Z,15.64
2018-08-08T01:10:39.761Z,15.58
2018-08-08T01:13:09.836Z,15.58
2018-08-08T01:15:39.522Z,15.59
2018-08-08T01:18:09.159Z,15.54
2018-08-08T01:20:38.986Z,15.50
2018-08-08T01:23:08.677Z,15.50
2018-08-08T01:25:38.256Z,15.52
2018-08-08T01:28:07.967Z,15.45
2018-08-08T01:30:37.602Z,15.44
2018-08-08T01:33:07.661Z,15.41
2018-08-08T01:35:37.296Z,15.39
2018-08-08T01:38:07.715Z,15.35
2018-08-08T01:40:37.623Z,15.33
2018-08-08T01:43:07.759Z,15.28
2018-08-08T01:45:37.429Z,15.23
2018-08-08T01:48:07.948Z,15.22
2018-08-08T01:50:38.082Z,15.23
2018-08-08T02:07:08.653Z,15.30
2018-08-08T02:09:39.388Z,15.16
2018-08-08T02:12:57.997Z,15.25
2018-08-08T02:15:27.757Z,15.30
2018-08-08T02:17:57.645Z,15.26
2018-08-08T02:20:27.383Z,15.21
2018-08-08T02:22:57.116Z,15.17
2018-08-08T02:25:26.795Z,15.09
2018-08-08T02:27:56.706Z,15.07
2018-08-08T02:30:26.480Z,15.07
2018-08-08T02:32:56.357Z,15.02
2018-08-08T02:35:26.320Z,15.04
2018-08-08T02:38:00.985Z,15.01
2018-08-08T02:40:32.694Z,15.03
2018-08-08T02:43:02.590Z,14.98
2018-08-08T02:45:32.258Z,14.95
2018-08-08T02:48:05.162Z,14.99
2018-08-08T02:50:35.766Z,14.99
2018-08-08T02:53:05.982Z,14.99
2018-08-08T02:55:35.806Z,14.95
2018-08-08T02:58:05.784Z,14.94
2018-08-08T03:00:35.712Z,14.92
2018-08-08T03:03:06.123Z,14.94
2018-08-08T03:05:36.037Z,14.90
2018-08-08T03:08:06.202Z,14.85
2018-08-08T03:10:36.079Z,14.84
2018-08-08T03:13:06.815Z,14.85
2018-08-08T03:15:36.782Z,14.85
2018-08-08T03:31:24.361Z,14.96
2018-08-08T03:36:47.406Z,14.91
2018-08-08T03:39:18.607Z,14.83
2018-08-08T03:41:48.819Z,14.82
2018-08-08T03:44:18.997Z,14.82
2018-08-08T03:46:48.858Z,14.80
2018-08-08T03:49:19.025Z,14.74
2018-08-08T03:54:42.023Z,14.83
2018-08-08T03:57:11.875Z,14.86
2018-08-08T03:59:41.881Z,14.96
2018-08-08T04:02:12.357Z,14.98
2018-08-08T04:04:43.218Z,15.12
2018-08-08T04:07:13.358Z,15.11
2018-08-08T04:09:43.483Z,15.08
2018-08-08T04:12:13.837Z,15.09
2018-08-08T04:14:45.143Z,15.07
2018-08-08T04:42:06.239Z,15.49
2018-08-08T04:44:36.752Z,15.54
2018-08-08T04:47:06.683Z,15.59
2018-08-08T04:49:36.701Z,15.65
2018-08-08T04:52:07.476Z,15.72
2018-08-08T04:54:37.514Z,15.81
2018-08-08T04:57:07.440Z,15.88
2018-08-08T04:59:37.289Z,15.99
2018-08-08T05:02:06.976Z,16.04
2018-08-08T05:04:36.835Z,16.15
2018-08-08T05:07:06.363Z,16.17
2018-08-08T05:09:36.025Z,16.18
2018-08-08T05:12:05.560Z,16.25
2018-08-08T05:14:35.203Z,16.40
2018-08-08T05:17:04.756Z,16.57
2018-08-08T05:19:34.483Z,16.85
2018-08-08T05:22:04.097Z,17.36
2018-08-08T05:24:33.703Z,17.76
2018-08-08T05:27:03.388Z,18.11
2018-08-08T05:29:33.173Z,18.37
2018-08-08T05:32:02.838Z,18.54
2018-08-08T05:34:32.337Z,18.76
2018-08-08T05:37:02.182Z,18.92
2018-08-08T05:39:32.136Z,19.08
2018-08-08T05:42:01.792Z,19.32
2018-08-08T05:44:31.705Z,19.45
2018-08-08T05:47:01.860Z,19.67
2018-08-08T05:49:31.642Z,19.91
2018-08-08T05:52:01.280Z,20.03
2018-08-08T05:54:31.060Z,20.20
2018-08-08T05:57:00.641Z,20.52
2018-08-08T05:59:30.256Z,20.39
2018-08-08T06:02:00.022Z,20.49
2018-08-08T06:04:29.721Z,20.48
2018-08-08T06:06:59.140Z,20.40
2018-08-08T06:09:28.720Z,20.24
2018-08-08T06:11:58.361Z,20.23
2018-08-08T06:14:27.892Z,20.48
2018-08-08T06:16:57.360Z,20.79
2018-08-08T06:19:27.029Z,20.85
2018-08-08T06:21:56.639Z,21.09
2018-08-08T06:24:26.443Z,21.41
2018-08-08T06:26:56.040Z,21.42
2018-08-08T06:29:25.862Z,21.50
2018-08-08T06:31:55.560Z,21.69
2018-08-08T06:34:25.282Z,21.94
2018-08-08T06:36:55.032Z,21.93
2018-08-08T06:39:24.831Z,21.79
2018-08-08T06:41:54.360Z,21.54
2018-08-08T06:44:23.829Z,21.73
2018-08-08T06:46:53.486Z,21.68
2018-08-08T06:49:23.131Z,21.40
2018-08-08T06:51:52.659Z,21.40
2018-08-08T06:54:22.301Z,21.14
2018-08-08T06:56:52.019Z,21.17
2018-08-08T06:59:21.587Z,21.30
2018-08-08T07:01:51.163Z,21.78
2018-08-08T07:04:20.779Z,21.57
2018-08-08T07:06:50.314Z,21.71
2018-08-08T07:09:19.888Z,21.79
2018-08-08T07:11:49.461Z,21.76
2018-08-08T07:14:19.135Z,21.90
2018-08-08T07:16:48.762Z,22.06
2018-08-08T07:19:18.309Z,22.42
2018-08-08T07:21:47.907Z,22.33
2018-08-08T07:24:17.459Z,22.68
2018-08-08T07:26:46.947Z,22.65
2018-08-08T07:29:16.661Z,23.12
2018-08-08T07:31:46.322Z,23.02
2018-08-08T07:34:16.010Z,23.17
2018-08-08T07:36:45.588Z,23.49
2018-08-08T07:39:15.319Z,23.63
2018-08-08T07:41:44.879Z,23.70
2018-08-08T07:44:14.607Z,23.78
2018-08-08T07:46:44.161Z,24.50
2018-08-08T07:49:13.941Z,24.82
2018-08-08T07:51:43.679Z,24.86
2018-08-08T07:54:13.281Z,24.92
2018-08-08T07:56:42.799Z,25.32
2018-08-08T07:59:13.279Z,25.74
2018-08-08T08:01:42.768Z,25.56
2018-08-08T08:04:12.783Z,25.43
2018-08-08T08:06:42.519Z,26.13
2018-08-08T08:09:12.989Z,26.62
2018-08-08T08:11:42.479Z,26.97
2018-08-08T08:14:12.160Z,26.86
2018-08-08T08:16:41.699Z,26.67
2018-08-08T08:19:11.228Z,26.41
2018-08-08T08:21:40.817Z,25.80
2018-08-08T08:24:10.588Z,26.31
2018-08-08T08:26:40.156Z,26.92
2018-08-08T08:29:09.942Z,27.29
2018-08-08T08:31:39.935Z,26.74
2018-08-08T08:34:09.881Z,26.42
2018-08-08T08:36:39.488Z,26.86
2018-08-08T08:39:12.320Z,27.53
2018-08-08T08:41:41.879Z,27.39
2018-08-08T08:44:11.542Z,27.31
2018-08-08T08:46:41.701Z,27.43
2018-08-08T08:49:11.355Z,27.22
2018-08-08T08:51:40.896Z,27.33
2018-08-08T08:54:10.603Z,27.32
2018-08-08T08:56:40.078Z,26.97
2018-08-08T08:59:09.597Z,27.17
2018-08-08T09:01:39.083Z,26.88
2018-08-08T09:04:08.678Z,26.58
2018-08-08T09:06:38.253Z,26.76
2018-08-08T09:09:12.022Z,26.73
2018-08-08T09:11:41.800Z,26.87
2018-08-08T09:14:11.463Z,27.06
2018-08-08T09:16:41.095Z,27.38
2018-08-08T09:19:10.776Z,27.56
2018-08-08T09:21:40.276Z,27.57
2018-08-08T09:24:10.141Z,27.62
2018-08-08T09:26:39.710Z,27.44
2018-08-08T09:29:09.436Z,27.56
2018-08-08T09:31:39.321Z,27.81
2018-08-08T09:34:09.296Z,27.45
2018-08-08T09:36:39.171Z,27.43
2018-08-08T09:39:10.835Z,27.72
2018-08-08T09:41:41.109Z,27.85
2018-08-08T09:44:10.929Z,27.89
2018-08-08T09:46:40.517Z,28.16
2018-08-08T09:49:10.845Z,28.13
2018-08-08T09:51:40.679Z,28.09
2018-08-08T09:54:10.258Z,28.03
2018-08-08T09:56:39.779Z,28.00
2018-08-08T09:59:09.838Z,28.11
2018-08-08T10:01:45.379Z,28.15
2018-08-08T10:04:20.177Z,28.30
2018-08-08T10:06:49.966Z,28.37
2018-08-08T10:09:19.910Z,28.31
2018-08-08T10:11:49.910Z,28.79
2018-08-08T10:14:20.263Z,28.75
2018-08-08T10:16:50.020Z,28.82
2018-08-08T10:19:21.336Z,28.91
2018-08-08T10:21:50.848Z,29.01
2018-08-08T10:24:20.771Z,28.55
2018-08-08T10:26:50.632Z,28.91
2018-08-08T10:29:20.972Z,28.58
2018-08-08T10:31:50.632Z,28.82
2018-08-08T10:34:20.532Z,28.95
2018-08-08T10:36:50.309Z,29.53
2018-08-08T10:39:20.991Z,29.31
2018-08-08T10:41:50.875Z,29.21
2018-08-08T10:44:20.651Z,29.37
2018-08-08T10:46:50.214Z,29.41
2018-08-08T10:49:20.191Z,29.73
2018-08-08T10:51:50.294Z,29.77
2018-08-08T10:54:20.211Z,29.63
2018-08-08T10:56:50.052Z,30.06
2018-08-08T10:59:20.831Z,29.94
2018-08-08T11:01:50.630Z,29.65
2018-08-08T11:04:21.476Z,29.48
2018-08-08T11:06:50.954Z,29.23
2018-08-08T11:09:20.525Z,29.71
2018-08-08T11:11:50.164Z,30.17
2018-08-08T11:14:20.181Z,29.79
2018-08-08T11:16:49.977Z,30.04
2018-08-08T11:19:20.255Z,30.17
2018-08-08T11:21:50.734Z,30.27
2018-08-08T11:24:20.314Z,29.94
2018-08-08T11:26:50.126Z,30.05
2018-08-08T11:29:20.095Z,30.40
2018-08-08T11:31:49.895Z,31.17
2018-08-08T11:34:19.563Z,31.02
2018-08-08T11:36:49.318Z,31.66
2018-08-08T11:39:20.596Z,31.29
2018-08-08T11:41:50.277Z,30.81
2018-08-08T11:44:21.582Z,31.13
2018-08-08T11:46:51.289Z,31.24
2018-08-08T11:49:21.937Z,31.47
2018-08-08T11:51:51.695Z,30.93
2018-08-08T11:54:21.535Z,31.10
2018-08-08T11:56:52.324Z,30.99
2018-08-08T11:59:23.657Z,31.47
2018-08-08T12:01:53.377Z,31.51
2018-08-08T12:04:23.080Z,31.43
2018-08-08T12:06:54.244Z,31.23
2018-08-08T12:09:26.438Z,31.22
2018-08-08T12:11:56.183Z,31.00
2018-08-08T12:14:27.556Z,30.82
2018-08-08T12:16:57.179Z,31.62
2018-08-08T12:19:29.015Z,31.40
2018-08-08T12:21:59.428Z,31.08
2018-08-08T12:24:30.836Z,30.95
2018-08-08T12:27:00.795Z,31.18
2018-08-08T12:29:30.596Z,32.06
2018-08-08T12:32:00.664Z,31.65
2018-08-08T12:34:30.426Z,31.37
2018-08-08T12:37:00.177Z,31.96
2018-08-08T12:39:30.634Z,32.31
2018-08-08T12:42:01.467Z,32.40
2018-08-08T12:44:31.188Z,32.16
2018-08-08T12:47:01.345Z,32.92
2018-08-08T12:49:31.117Z,32.09
2018-08-08T12:52:02.118Z,31.33
2018-08-08T12:54:31.705Z,31.45
2018-08-08T12:57:01.377Z,31.22
2018-08-08T12:59:30.937Z,31.78
2018-08-08T13:02:00.672Z,32.51
2018-08-08T13:04:30.906Z,32.49
2018-08-08T13:07:01.068Z,32.50
2018-08-08T13:09:31.298Z,32.64
2018-08-08T13:12:01.428Z,32.69
2018-08-08T13:14:31.388Z,32.99
2018-08-08T13:17:02.275Z,33.12
2018-08-08T13:19:32.536Z,32.68
2018-08-08T13:22:03.049Z,32.80
2018-08-08T13:24:33.216Z,31.94
2018-08-08T13:27:03.748Z,31.99
2018-08-08T13:29:33.789Z,31.98
2018-08-08T13:32:04.430Z,31.98
2018-08-08T13:34:34.598Z,32.38
2018-08-08T13:37:04.771Z,32.78
2018-08-08T13:39:35.113Z,32.90
2018-08-08T13:42:05.357Z,33.17
2018-08-08T13:44:35.671Z,32.52
2018-08-08T13:47:05.692Z,32.69
2018-08-08T13:49:35.671Z,32.16
2018-08-08T13:52:05.651Z,32.53
2018-08-08T13:54:35.551Z,32.93
2018-08-08T13:57:06.138Z,32.41
2018-08-08T13:59:37.414Z,32.41
2018-08-08T14:02:07.712Z,32.28
2018-08-08T14:04:37.830Z,32.61
2018-08-08T14:07:07.951Z,32.07
2018-08-08T14:09:38.016Z,31.89
2018-08-08T14:12:08.597Z,31.85
2018-08-08T14:14:38.553Z,31.88
2018-08-08T14:17:08.851Z,31.85
2018-08-08T14:19:39.233Z,32.00
2018-08-08T14:22:09.641Z,32.47
2018-08-08T14:24:39.714Z,32.70
2018-08-08T14:27:09.621Z,31.86
2018-08-08T14:29:39.532Z,32.00
2018-08-08T14:32:10.035Z,32.05
2018-08-08T14:34:40.378Z,32.42
2018-08-08T14:37:10.353Z,32.52
2018-08-08T14:39:40.701Z,32.36
2018-08-08T14:42:10.922Z,32.58
2018-08-08T14:44:41.096Z,32.79
2018-08-08T14:47:11.867Z,33.23
2018-08-08T14:49:41.896Z,33.07
2018-08-08T14:52:12.030Z,33.37
2018-08-08T14:54:42.400Z,33.57
2018-08-08T14:57:12.674Z,33.17
2018-08-08T14:59:42.734Z,33.03
2018-08-08T15:02:12.593Z,33.25
2018-08-08T15:04:42.696Z,33.60
2018-08-08T15:07:12.775Z,33.04
2018-08-08T15:09:42.815Z,32.95
2018-08-08T15:12:12.953Z,33.39
2018-08-08T15:14:43.055Z,33.41
2018-08-08T15:17:13.016Z,33.81
2018-08-08T15:19:42.934Z,33.32
2018-08-08T15:22:12.837Z,33.28
2018-08-08T15:24:42.646Z,33.15
2018-08-08T15:27:12.734Z,32.35
2018-08-08T15:29:42.783Z,32.22
2018-08-08T15:32:13.654Z,32.56
2018-08-08T15:34:43.888Z,32.67
2018-08-08T15:37:15.287Z,32.75
2018-08-08T15:39:45.021Z,32.78
2018-08-08T15:42:14.815Z,32.96
2018-08-08T15:44:44.813Z,32.95
2018-08-08T15:47:14.962Z,33.08
2018-08-08T15:49:45.054Z,32.49
2018-08-08T15:52:14.862Z,32.39
2018-08-08T15:54:44.834Z,32.17
2018-08-08T15:57:14.674Z,32.06
2018-08-08T15:59:44.674Z,32.12
2018-08-08T16:02:14.525Z,32.10
2018-08-08T16:04:44.415Z,32.31
2018-08-08T16:07:14.555Z,32.61
2018-08-08T16:09:44.533Z,32.34
2018-08-08T16:12:14.532Z,32.31
2018-08-08T16:14:44.511Z,32.24
2018-08-08T16:17:14.413Z,32.22
2018-08-08T16:19:44.374Z,32.24
2018-08-08T16:22:14.456Z,31.99
2018-08-08T16:24:44.672Z,31.83
2018-08-08T16:27:14.633Z,31.46
2018-08-08T16:29:44.594Z,31.25
2018-08-08T16:32:16.386Z,31.20
2018-08-08T16:34:46.673Z,30.92
2018-08-08T16:37:17.192Z,30.85
2018-08-08T16:39:47.372Z,30.90
2018-08-08T16:42:17.391Z,30.63
2018-08-08T16:44:47.412Z,30.72
2018-08-08T16:47:17.493Z,30.40
2018-08-08T16:49:47.729Z,30.27
2018-08-08T16:52:30.178Z,30.03
2018-08-08T16:55:02.410Z,29.93
2018-08-08T17:03:16.883Z,29.46
2018-08-08T17:06:08.146Z,29.23
2018-08-08T17:08:38.724Z,29.04
2018-08-08T17:11:09.235Z,28.96
2018-08-08T17:13:39.553Z,28.60
2018-08-08T17:16:09.819Z,28.19
2018-08-08T17:18:40.054Z,27.99
2018-08-08T17:21:10.653Z,28.09
2018-08-08T17:23:40.742Z,27.94
2018-08-08T17:26:10.935Z,27.73
2018-08-08T17:28:41.612Z,27.64
2018-08-08T17:31:11.853Z,27.53
2018-08-08T17:33:41.940Z,27.57
2018-08-08T17:36:12.295Z,27.52
2018-08-08T17:38:42.220Z,27.13
2018-08-08T17:41:12.720Z,26.63
2018-08-08T17:43:43.050Z,26.37
2018-08-08T17:46:13.031Z,26.34
2018-08-08T17:48:43.379Z,26.51
2018-08-08T17:51:13.971Z,26.45
2018-08-08T17:53:44.451Z,26.48
2018-08-08T17:56:14.535Z,26.34
2018-08-08T17:58:44.392Z,26.20
2018-08-08T18:01:14.292Z,26.19
2018-08-08T18:03:44.331Z,26.10
2018-08-08T18:06:14.479Z,25.98
2018-08-08T18:08:44.462Z,26.00
2018-08-08T18:11:15.258Z,25.88
2018-08-08T18:13:45.178Z,25.81
2018-08-08T18:16:15.245Z,25.44
2018-08-08T18:18:45.180Z,25.19
2018-08-08T18:21:15.237Z,25.12
2018-08-08T18:23:45.101Z,24.76
2018-08-08T18:26:15.290Z,24.89
2018-08-08T18:28:45.178Z,25.03
2018-08-08T18:31:15.137Z,24.97
2018-08-08T18:33:45.031Z,24.86
2018-08-08T18:36:14.931Z,24.65
2018-08-08T18:38:44.778Z,24.66
2018-08-08T18:41:14.982Z,24.52
2018-08-08T18:43:45.623Z,24.53
2018-08-08T18:46:15.470Z,24.60
2018-08-08T18:48:56.819Z,24.48
2018-08-08T18:51:33.722Z,24.51
2018-08-08T18:54:03.782Z,24.34
2018-08-08T18:56:41.454Z,24.26
2018-08-08T18:59:23.399Z,24.11
2018-08-08T19:01:54.786Z,24.28
2018-08-08T19:04:25.203Z,24.30
2018-08-08T19:06:55.389Z,24.28
2018-08-08T19:09:27.337Z,24.33
2018-08-08T19:12:09.239Z,24.16
2018-08-08T19:14:40.290Z,24.09
2018-08-08T19:17:11.068Z,24.02
2018-08-08T19:19:41.493Z,23.92
2018-08-08T19:22:12.568Z,23.92
2018-08-08T19:24:42.947Z,23.99
2018-08-08T19:27:30.215Z,23.96
2018-08-08T19:30:00.409Z,23.85
2018-08-08T19:32:30.174Z,23.86
2018-08-08T19:35:00.031Z,23.78
2018-08-08T19:37:29.816Z,23.68
2018-08-08T19:39:59.689Z,23.64
2018-08-08T19:42:29.953Z,23.62
2018-08-08T19:44:59.889Z,23.58
2018-08-08T19:47:29.650Z,23.54
2018-08-08T19:49:59.430Z,23.43
2018-08-08T19:52:29.170Z,23.34
2018-08-08T19:54:59.076Z,23.20
2018-08-08T19:57:29.009Z,23.17
2018-08-08T19:59:59.042Z,23.06
2018-08-08T20:02:29.145Z,22.97
2018-08-08T20:04:59.027Z,22.88
2018-08-08T20:07:28.995Z,22.76
2018-08-08T20:09:59.061Z,22.69
2018-08-08T20:12:29.156Z,22.57
2018-08-08T20:14:59.028Z,22.49
2018-08-08T20:17:29.009Z,22.41
2018-08-08T20:19:59.117Z,22.37
2018-08-08T20:22:29.470Z,22.24
2018-08-08T20:24:59.452Z,22.15
2018-08-08T20:27:29.315Z,22.11
2018-08-08T20:29:59.228Z,22.10
2018-08-08T20:32:29.029Z,22.02
2018-08-08T20:34:58.955Z,21.92
2018-08-08T20:37:28.668Z,21.90
2018-08-08T20:39:58.576Z,21.84
2018-08-08T20:42:28.516Z,21.75
2018-08-08T20:44:58.451Z,21.69
2018-08-08T20:47:28.388Z,21.54
2018-08-08T20:49:58.331Z,21.53
2018-08-08T20:52:28.209Z,21.50
2018-08-08T20:54:59.989Z,21.45
2018-08-08T20:57:29.790Z,21.38
2018-08-08T21:00:01.018Z,21.35
2018-08-08T21:02:30.937Z,21.25
2018-08-08T21:05:02.436Z,21.25
2018-08-08T21:07:32.249Z,21.13
2018-08-08T21:10:03.889Z,21.06
2018-08-08T21:12:33.806Z,20.99
2018-08-08T21:15:04.769Z,20.91
2018-08-08T21:17:34.487Z,20.87
2018-08-08T21:20:06.169Z,20.76
2018-08-08T21:22:36.689Z,20.65
2018-08-08T21:25:07.549Z,20.53
2018-08-08T21:27:37.350Z,20.41
2018-08-08T21:30:09.350Z,20.29
2018-08-08T21:32:39.177Z,20.22
2018-08-08T21:35:10.830Z,20.07
2018-08-08T21:37:40.529Z,20.07
2018-08-08T21:40:12.377Z,20.02
2018-08-08T21:42:42.309Z,19.94
2018-08-08T21:45:12.989Z,19.90
2018-08-08T21:47:42.830Z,19.85
2018-08-08T21:50:13.917Z,19.75
2018-08-08T21:52:43.790Z,19.69
2018-08-08T21:55:24.197Z,19.66
2018-08-08T21:58:04.496Z,19.55
2018-08-08T22:00:44.899Z,19.51
2018-08-08T22:03:25.117Z,19.42
2018-08-08T22:06:06.117Z,19.35
2018-08-08T22:08:46.377Z,19.30
2018-08-08T22:13:33.018Z,19.29
2018-08-08T22:16:13.518Z,19.33
2018-08-08T22:19:52.391Z,19.23
2018-08-08T22:22:22.278Z,19.17
2018-08-08T22:24:52.202Z,19.20
2018-08-08T22:27:22.278Z,19.15
2018-08-08T22:29:52.199Z,19.13
2018-08-08T22:32:22.178Z,19.11
2018-08-08T22:34:52.659Z,19.08
2018-08-08T22:37:22.660Z,19.04
2018-08-08T22:39:52.558Z,18.94
2018-08-08T22:42:22.479Z,18.89
2018-08-08T22:44:52.419Z,18.92
2018-08-08T22:47:22.378Z,18.90
2018-08-08T22:49:52.132Z,18.84
2018-08-08T22:52:22.132Z,18.80
2018-08-08T22:54:51.933Z,18.85
2018-08-08T22:57:21.882Z,18.88
2018-08-08T22:59:51.719Z,18.87
2018-08-08T23:02:21.719Z,18.83
2018-08-08T23:04:51.620Z,18.75
2018-08-08T23:07:21.480Z,18.73
2018-08-08T23:09:51.421Z,18.57
2018-08-08T23:12:21.539Z,18.52
2018-08-08T23:14:51.339Z,18.52
2018-08-08T23:17:21.319Z,18.40
2018-08-08T23:19:51.173Z,18.48
2018-08-08T23:22:32.360Z,18.55
2018-08-08T23:25:02.160Z,18.60
2018-08-08T23:27:32.200Z,18.60
2018-08-08T23:30:02.041Z,18.60
2018-08-08T23:32:32.064Z,18.56
2018-08-08T23:35:02.123Z,18.52
2018-08-08T23:37:32.015Z,18.55
2018-08-08T23:40:01.761Z,18.49
2018-08-08T23:42:31.721Z,18.35
2018-08-08T23:45:01.541Z,18.37
2018-08-08T23:47:31.560Z,18.30
2018-08-08T23:50:01.361Z,18.36
2018-08-08T23:52:31.254Z,18.41
2018-08-08T23:55:01.042Z,18.44
2018-08-08T23:57:30.997Z,18.42
